Elk City, OK (73644)

1:46 PM CDT on July 12, 2014 (GMT -0500)
Clinton-Sherman (KCSM) Elev 1923 ft | 35.34 °N, 99.20 °W | Change Station

Current weather conditions updated 53 minutes ago

Clear
Clear
94 °F
Feels Like 93 °F
N
24
Wind Variable Wind from South
Gusts 33 mph

Today is forecast to be nearly the same temperature as yesterday.

Today
High -- | Low -- °F
--% Chance of Precip.
Yesterday
High -- | Low -- °F
Precip. -- in
6:32 AM 8:54 PM
Full, 100% visible
Pressure 30.05 in
Visibility 10.0 miles
Clouds Clear
Heat Index 93 °F
Dew Point 57 °F
Humidity 29%
Rainfall 0.00 in
Snow Depth Not available.
UV 12 out of 12
Pollen 5.00 out of 12
Air Quality Not available.
Flu Activity Local Activity
METAR KCSM 121753Z AUTO 19021G29KT 10SM CLR 34/14 A3013 RMK AO2 PK WND 21031/1717 SLP174 T03440139 10344 20233 58011

More Conditions Fewer Conditions

Pressure 30.05 in
Visibility 10.0 miles
Clouds Clear
Heat Index 93 °F
Dew Point 57 °F
Humidity 29%
Rainfall 0.00 in
Snow Depth Not available.
UV 12 out of 12
Pollen 5.00 out of 12
Air Quality Not available.
Flu Activity Local Activity
METAR KCSM 121753Z AUTO 19021G29KT 10SM CLR 34/14 A3013 RMK AO2 PK WND 21031/1717 SLP174 T03440139 10344 20233 58011

More Conditions Fewer Conditions

10-Day Weather Forecast

Almanac

Astronomy

Jul. 12, 2014 Rise Set
Actual Time 6:32 AM CDT 8:54 PM CDT
Civil Twilight 6:02 AM CDT 9:23 PM CDT
Nautical Twilight 5:26 AM CDT 9:59 PM CDT
Astronomical Twilight 4:47 AM CDT 10:38 PM CDT
Moon 9:01 PM CDT 6:50 AM CDT
Length of Visible Light 15h 20m
Length of Day
14h 22m
Tomorrow will be 1m 1s shorter.
Full, 100% of the Moon is Illuminated
Today
Full
Jul 18
Last Quarter
Jul 26
New
Aug 3
First Quarter
Aug 10
Full

Today's Extremes

State Highs State Lows

Community

WunderPhotos

Upload Photos

1,732,918 photos uploaded!

WunderBlogs® & News

Nearby

Snow Depth

Station Depth Elevation
No new snow has been reported.

Earthquake Activity

City Distance Mag. Time & Date
Cherokee, Oklahoma 123 miles 2.5 10:52 PM CDT
2014-07-06
Cherokee, Oklahoma 120 miles 2.8 10:43 AM CDT
2014-07-06
Medford, Oklahoma 124 miles 3.1 10:22 AM CDT
2014-07-06
Medford, Oklahoma 130 miles 3.2 11:10 PM CDT
2014-07-05
Minimum magnitude displayed is 2.5.

Coastal Water Temperatures

Place Temperature
No Stations Reporting

Nearby Weather Stations

Station Location Temp. Heat Index Dew Point Humidity Wind Precip. Elev Updated Type
HADS MUNICIPAL AIRPORT NEAR ELK CITY OK, Elk City, OK 90 °F 87 °F - - North  at  - 0.00 in / hr 1981 ft 1:00 PM CDT MADIS
Western Oklahoma, Erick, OK 91.8 °F 92 °F 61 °F 36% WSW  at  5.8 mph 0.00 in / hr 1978 ft 1:46 PM CDT Rapid Fire

Show More Stations Show Fewer Stations